Time;durP1;ratioP1;P1;durP2;ratioP2;P2;SDS_P1;SDS_P2;PMS_P1;PMS_P2;Temp;Humidity;BMP_temperature;BMP_pressure;BME280_temperature;BME280_humidity;BME280_pressure;Samples;Min_cycle;Max_cycle;Signal;HPM_P1;HPM_P2
2023/11/08 00:00:18;;;;;;;3.08;1.75;;;;;;;;;;5011657;28;20594;-82
2023/11/08 00:02:46;;;;;;;2.97;2.67;;;;;;;;;;4979564;28;20046;-81
2023/11/08 00:05:14;;;;;;;3.67;2.03;;;;;;;;;;5003782;28;20054;-81
2023/11/08 00:07:42;;;;;;;5.93;1.55;;;;;;;;;;5016250;28;20057;-81
2023/11/08 00:10:13;;;;;;;2.22;1.95;;;;;;;;;;4992478;28;20069;-81
2023/11/08 00:12:43;;;;;;;2.65;1.90;;;;;;;;;;4981343;28;20058;-81
2023/11/08 00:15:11;;;;;;;2.97;1.92;;;;;;;;;;4988628;28;20058;-81
2023/11/08 00:17:40;;;;;;;4.22;2.10;;;;;;;;;;5013548;28;20472;-81
2023/11/08 00:20:12;;;;;;;3.95;2.30;;;;;;;;;;4992698;28;20535;-81
2023/11/08 00:22:44;;;;;;;2.83;1.95;;;;;;;;;;4993419;28;20050;-81
2023/11/08 00:25:14;;;;;;;5.15;2.25;;;;;;;;;;4998164;28;20057;-82
2023/11/08 00:27:41;;;;;;;4.95;1.63;;;;;;;;;;4999031;28;20047;-81
2023/11/08 00:30:12;;;;;;;3.53;1.50;;;;;;;;;;5011014;28;20045;-81
2023/11/08 00:32:43;;;;;;;2.38;1.63;;;;;;;;;;5005480;28;20549;-81
2023/11/08 00:35:14;;;;;;;3.65;1.70;;;;;;;;;;5005715;28;20080;-81
2023/11/08 00:37:41;;;;;;;5.22;1.92;;;;;;;;;;5011217;28;20563;-81
2023/11/08 00:40:14;;;;;;;7.70;1.88;;;;;;;;;;5006137;28;20041;-81
2023/11/08 00:42:44;;;;;;;2.75;2.28;;;;;;;;;;5007390;28;20061;-81
2023/11/08 00:45:11;;;;;;;1.73;1.58;;;;;;;;;;4990382;28;20050;-81
2023/11/08 00:47:38;;;;;;;2.40;1.58;;;;;;;;;;5013825;28;20061;-81
2023/11/08 00:50:10;;;;;;;2.40;1.52;;;;;;;;;;4978682;28;20401;-81
2023/11/08 00:52:37;;;;;;;6.00;2.55;;;;;;;;;;4991560;28;20053;-81
2023/11/08 00:55:05;;;;;;;9.70;2.38;;;;;;;;;;4983269;28;20413;-81
2023/11/08 00:57:35;;;;;;;4.43;2.67;;;;;;;;;;4997230;28;20485;-82
2023/11/08 01:00:08;;;;;;;7.57;2.60;;;;;;;;;;5011072;28;20049;-81
2023/11/08 01:02:36;;;;;;;2.90;1.73;;;;;;;;;;4987682;28;20060;-82
2023/11/08 01:05:09;;;;;;;3.03;2.08;;;;;;;;;;5008943;28;20571;-81
2023/11/08 01:07:38;;;;;;;1.88;1.70;;;;;;;;;;5010424;28;20618;-81
2023/11/08 01:10:08;;;;;;;3.70;1.70;;;;;;;;;;4982183;28;20388;-81
2023/11/08 01:12:35;;;;;;;2.47;1.45;;;;;;;;;;4989188;28;20054;-81
2023/11/08 01:15:03;;;;;;;2.83;2.05;;;;;;;;;;4988785;28;20042;-81
2023/11/08 01:17:30;;;;;;;1.77;1.27;;;;;;;;;;5005297;28;20061;-81
2023/11/08 01:20:01;;;;;;;4.22;2.00;;;;;;;;;;5011048;28;20061;-81
2023/11/08 01:22:30;;;;;;;3.08;1.77;;;;;;;;;;5004802;28;20400;-81
2023/11/08 01:24:57;;;;;;;3.30;2.05;;;;;;;;;;4992557;28;20053;-81
2023/11/08 01:27:27;;;;;;;4.53;1.98;;;;;;;;;;5012296;28;20049;-81
2023/11/08 01:29:54;;;;;;;2.88;2.00;;;;;;;;;;4966159;28;20050;-81
2023/11/08 01:32:22;;;;;;;5.35;2.75;;;;;;;;;;4991582;28;20620;-81
2023/11/08 01:34:51;;;;;;;3.88;2.05;;;;;;;;;;4976335;28;20069;-81
2023/11/08 01:37:18;;;;;;;3.05;2.13;;;;;;;;;;5003599;28;20049;-81
2023/11/08 01:39:47;;;;;;;3.63;1.98;;;;;;;;;;4996459;28;20527;-81
2023/11/08 01:42:19;;;;;;;2.90;1.63;;;;;;;;;;4990132;28;20396;-81
2023/11/08 01:44:49;;;;;;;2.38;1.75;;;;;;;;;;4993384;28;20062;-82
2023/11/08 01:49:59;;;;;;;3.42;2.10;;;;;;;;;;5012363;28;20411;-82
2023/11/08 01:52:31;;;;;;;5.43;2.53;;;;;;;;;;4997232;28;20053;-83
2023/11/08 01:55:03;;;;;;;4.20;2.03;;;;;;;;;;5012368;28;20050;-83
2023/11/08 01:57:32;;;;;;;2.05;1.60;;;;;;;;;;4995335;28;20057;-81
2023/11/08 02:00:04;;;;;;;2.35;1.92;;;;;;;;;;4996618;28;20057;-81
2023/11/08 02:02:40;;;;;;;6.65;2.47;;;;;;;;;;5012700;28;20053;-81
2023/11/08 02:05:10;;;;;;;4.22;2.10;;;;;;;;;;5012692;28;20049;-81
2023/11/08 02:07:42;;;;;;;3.05;1.92;;;;;;;;;;5002628;28;20277;-81
2023/11/08 02:10:11;;;;;;;2.33;1.67;;;;;;;;;;5017080;28;20046;-81
2023/11/08 02:12:43;;;;;;;2.35;2.15;;;;;;;;;;4998982;28;20062;-83
2023/11/08 02:15:15;;;;;;;2.22;1.58;;;;;;;;;;4997882;28;20467;-83
2023/11/08 02:17:48;;;;;;;2.55;1.95;;;;;;;;;;5014309;28;20049;-83
2023/11/08 02:20:17;;;;;;;3.78;2.00;;;;;;;;;;4999213;28;20554;-83
2023/11/08 02:22:45;;;;;;;3.65;2.38;;;;;;;;;;5015021;28;20674;-83
2023/11/08 02:25:13;;;;;;;4.28;1.90;;;;;;;;;;4999736;28;20050;-83
2023/11/08 02:27:45;;;;;;;2.78;2.35;;;;;;;;;;5012385;28;20053;-83
2023/11/08 02:30:13;;;;;;;3.63;2.17;;;;;;;;;;4998744;28;20492;-83
2023/11/08 02:32:43;;;;;;;4.10;2.47;;;;;;;;;;4999360;28;20045;-84
2023/11/08 02:35:11;;;;;;;3.38;2.28;;;;;;;;;;5016584;28;20034;-83
2023/11/08 02:37:38;;;;;;;4.80;2.20;;;;;;;;;;5014659;28;20052;-84
2023/11/08 02:40:07;;;;;;;3.17;2.33;;;;;;;;;;4999551;28;20376;-84
2023/11/08 02:42:40;;;;;;;3.72;2.95;;;;;;;;;;5014162;28;20393;-83
2023/11/08 02:45:08;;;;;;;2.60;2.40;;;;;;;;;;4998612;28;20420;-83
2023/11/08 02:47:38;;;;;;;5.25;2.38;;;;;;;;;;5016808;28;20038;-83
2023/11/08 02:50:09;;;;;;;3.42;2.17;;;;;;;;;;5000604;28;20069;-83
2023/11/08 02:52:36;;;;;;;3.50;2.40;;;;;;;;;;4983132;28;20069;-83
2023/11/08 02:55:04;;;;;;;2.42;2.22;;;;;;;;;;4997099;28;20058;-83
2023/11/08 02:57:31;;;;;;;9.20;2.65;;;;;;;;;;5000992;28;20148;-83
2023/11/08 03:00:03;;;;;;;3.28;2.20;;;;;;;;;;5010131;28;20066;-83
2023/11/08 03:02:33;;;;;;;8.07;2.63;;;;;;;;;;4997736;28;20046;-83
2023/11/08 03:05:03;;;;;;;5.72;2.58;;;;;;;;;;5015473;28;20065;-83
2023/11/08 03:07:30;;;;;;;6.57;2.70;;;;;;;;;;5015937;28;20400;-83
2023/11/08 03:09:57;;;;;;;4.10;2.38;;;;;;;;;;4999006;28;20054;-84
2023/11/08 03:12:28;;;;;;;3.80;3.50;;;;;;;;;;4979388;28;20057;-84
2023/11/08 03:14:55;;;;;;;2.67;1.98;;;;;;;;;;5013839;28;20419;-83
2023/11/08 03:17:23;;;;;;;4.63;2.83;;;;;;;;;;4996853;28;20377;-83
2023/11/08 03:19:51;;;;;;;3.92;2.10;;;;;;;;;;5015225;28;20048;-83
2023/11/08 03:22:20;;;;;;;3.22;2.30;;;;;;;;;;4981464;28;20052;-82
2023/11/08 03:24:48;;;;;;;3.63;2.30;;;;;;;;;;4996269;28;20530;-83
2023/11/08 03:27:18;;;;;;;4.10;2.60;;;;;;;;;;5011818;28;20046;-83
2023/11/08 03:29:47;;;;;;;3.80;2.25;;;;;;;;;;5012600;28;20045;-84
2023/11/08 03:32:16;;;;;;;2.92;1.60;;;;;;;;;;5013518;28;20041;-83
2023/11/08 03:34:47;;;;;;;3.10;1.60;;;;;;;;;;5011932;28;20057;-83
2023/11/08 03:37:16;;;;;;;3.35;2.28;;;;;;;;;;5013780;28;20049;-84
2023/11/08 03:39:44;;;;;;;2.05;1.63;;;;;;;;;;5014173;28;20045;-83
2023/11/08 03:42:11;;;;;;;3.00;1.48;;;;;;;;;;5014629;28;20043;-83
2023/11/08 03:44:40;;;;;;;3.20;1.73;;;;;;;;;;5012243;28;20049;-84
2023/11/08 03:47:09;;;;;;;2.55;1.67;;;;;;;;;;5013371;28;20512;-84
2023/11/08 03:49:39;;;;;;;3.28;2.22;;;;;;;;;;5000459;28;20053;-83
2023/11/08 03:52:08;;;;;;;2.85;1.90;;;;;;;;;;5015657;28;20045;-83
2023/11/08 03:54:40;;;;;;;4.03;2.13;;;;;;;;;;5017669;28;20057;-84
2023/11/08 03:57:09;;;;;;;5.07;2.72;;;;;;;;;;5015640;28;20061;-83
2023/11/08 03:59:38;;;;;;;3.03;1.77;;;;;;;;;;5015938;28;20057;-83
2023/11/08 04:02:08;;;;;;;2.88;1.67;;;;;;;;;;5014599;28;20048;-83
2023/11/08 04:04:36;;;;;;;2.83;1.70;;;;;;;;;;4997384;28;20500;-83
2023/11/08 04:07:09;;;;;;;1.90;1.70;;;;;;;;;;5014152;28;20057;-84
2023/11/08 04:09:37;;;;;;;2.33;1.75;;;;;;;;;;4991832;28;20046;-83
2023/11/08 04:12:07;;;;;;;2.65;1.50;;;;;;;;;;5011611;28;20054;-83
2023/11/08 04:14:34;;;;;;;3.17;2.00;;;;;;;;;;5016794;28;20046;-83
2023/11/08 04:17:02;;;;;;;6.13;1.92;;;;;;;;;;4996251;28;20057;-83
2023/11/08 04:19:29;;;;;;;2.08;1.52;;;;;;;;;;5012333;28;20056;-83
2023/11/08 04:21:57;;;;;;;7.07;1.90;;;;;;;;;;4997574;28;20084;-83
2023/11/08 04:24:25;;;;;;;2.78;1.88;;;;;;;;;;5013152;28;20062;-84
2023/11/08 04:26:53;;;;;;;6.50;2.55;;;;;;;;;;4995957;28;20062;-84
2023/11/08 04:29:22;;;;;;;2.90;1.75;;;;;;;;;;5009243;28;20046;-83
2023/11/08 04:31:49;;;;;;;6.07;1.88;;;;;;;;;;4996824;28;20045;-83
2023/11/08 04:34:19;;;;;;;4.55;3.00;;;;;;;;;;5013618;28;20045;-83
2023/11/08 04:36:47;;;;;;;2.53;2.25;;;;;;;;;;5015436;28;20050;-84
2023/11/08 04:39:18;;;;;;;4.18;1.77;;;;;;;;;;4996773;28;20047;-84
2023/11/08 04:41:46;;;;;;;5.43;2.72;;;;;;;;;;5015819;28;20041;-83
2023/11/08 04:44:16;;;;;;;3.47;1.75;;;;;;;;;;5009523;28;20048;-83
2023/11/08 04:46:44;;;;;;;4.35;2.00;;;;;;;;;;5027818;28;20053;-83
2023/11/08 04:49:13;;;;;;;4.38;1.98;;;;;;;;;;5026884;28;20054;-84
2023/11/08 04:51:40;;;;;;;3.47;2.22;;;;;;;;;;4995608;28;20062;-84
2023/11/08 04:54:08;;;;;;;3.53;1.95;;;;;;;;;;4995933;28;20416;-83
2023/11/08 04:56:35;;;;;;;5.45;2.72;;;;;;;;;;5015012;28;20049;-83
2023/11/08 04:59:04;;;;;;;2.30;1.60;;;;;;;;;;5013590;28;20416;-84
2023/11/08 05:01:32;;;;;;;5.03;2.42;;;;;;;;;;4998060;28;20052;-83
2023/11/08 05:04:02;;;;;;;3.15;1.92;;;;;;;;;;5013094;28;20046;-83
2023/11/08 05:06:32;;;;;;;2.25;1.17;;;;;;;;;;5012770;28;20049;-83
2023/11/08 05:08:59;;;;;;;4.43;1.85;;;;;;;;;;5007361;28;20415;-83
2023/11/08 05:11:29;;;;;;;4.28;2.22;;;;;;;;;;5011981;28;20050;-84
2023/11/08 05:14:01;;;;;;;4.03;1.60;;;;;;;;;;5009477;28;20046;-84
2023/11/08 05:16:34;;;;;;;5.38;2.30;;;;;;;;;;5013934;28;20057;-84
2023/11/08 05:19:03;;;;;;;3.65;1.67;;;;;;;;;;4996718;28;20530;-83
2023/11/08 05:21:31;;;;;;;6.10;2.38;;;;;;;;;;4999469;28;20050;-84
2023/11/08 05:23:58;;;;;;;6.50;2.20;;;;;;;;;;5004129;28;20526;-84
2023/11/08 05:26:25;;;;;;;2.22;1.80;;;;;;;;;;5013348;28;20531;-84
2023/11/08 05:28:51;;;;;;;6.70;2.30;;;;;;;;;;5011946;28;20400;-84
2023/11/08 05:31:19;;;;;;;5.78;2.00;;;;;;;;;;4989340;28;20046;-84
2023/11/08 05:33:50;;;;;;;3.10;1.33;;;;;;;;;;5012672;28;20077;-84
2023/11/08 05:36:19;;;;;;;3.50;2.42;;;;;;;;;;5011910;28;20049;-83
2023/11/08 05:38:47;;;;;;;2.75;1.75;;;;;;;;;;5011706;28;20049;-84
2023/11/08 05:41:19;;;;;;;2.10;1.63;;;;;;;;;;4996089;28;20050;-83
2023/11/08 05:43:46;;;;;;;5.32;1.98;;;;;;;;;;5012145;28;20072;-83
2023/11/08 05:46:14;;;;;;;3.40;2.20;;;;;;;;;;5014561;28;20061;-83
2023/11/08 05:48:43;;;;;;;2.75;1.70;;;;;;;;;;5008399;28;20060;-83
2023/11/08 05:51:12;;;;;;;4.65;1.88;;;;;;;;;;5013360;28;20057;-83
2023/11/08 05:53:41;;;;;;;5.13;1.83;;;;;;;;;;5007011;28;20134;-84
2023/11/08 05:56:08;;;;;;;4.05;2.40;;;;;;;;;;4995353;28;20058;-84
2023/11/08 05:58:40;;;;;;;4.78;1.77;;;;;;;;;;5012730;28;20397;-84
2023/11/08 06:01:13;;;;;;;4.13;1.90;;;;;;;;;;5011785;28;20125;-84
2023/11/08 06:03:40;;;;;;;3.80;1.75;;;;;;;;;;5011369;28;20050;-84
2023/11/08 06:06:07;;;;;;;8.55;2.33;;;;;;;;;;5011744;28;20046;-83
2023/11/08 06:08:36;;;;;;;2.70;1.45;;;;;;;;;;5012149;28;20046;-83
2023/11/08 06:11:04;;;;;;;5.78;2.17;;;;;;;;;;4995923;28;20050;-83
2023/11/08 06:13:33;;;;;;;3.67;2.20;;;;;;;;;;5012629;28;20408;-83
2023/11/08 06:16:00;;;;;;;2.38;1.80;;;;;;;;;;5007912;28;20053;-84
2023/11/08 06:18:30;;;;;;;3.05;2.13;;;;;;;;;;4993695;28;20050;-83
2023/11/08 06:20:57;;;;;;;2.15;1.77;;;;;;;;;;4993275;28;20054;-83
2023/11/08 06:23:27;;;;;;;3.15;1.77;;;;;;;;;;4989433;28;20412;-83
2023/11/08 06:25:58;;;;;;;3.97;2.03;;;;;;;;;;4994559;28;20057;-84
2023/11/08 06:28:27;;;;;;;3.75;1.55;;;;;;;;;;5009184;28;20045;-84
2023/11/08 06:30:55;;;;;;;4.28;2.15;;;;;;;;;;5011823;28;20534;-84
2023/11/08 06:33:24;;;;;;;9.32;1.92;;;;;;;;;;4987391;28;20050;-84
2023/11/08 06:35:58;;;;;;;2.13;1.60;;;;;;;;;;5012439;28;20412;-84
2023/11/08 06:38:28;;;;;;;2.65;1.80;;;;;;;;;;5010021;28;20046;-84
2023/11/08 06:40:56;;;;;;;2.08;1.88;;;;;;;;;;4995212;28;20049;-84
2023/11/08 06:43:24;;;;;;;2.47;2.08;;;;;;;;;;5011555;28;20049;-84
2023/11/08 06:45:52;;;;;;;2.33;1.70;;;;;;;;;;5012914;28;20053;-84
2023/11/08 06:48:21;;;;;;;7.07;2.45;;;;;;;;;;5010434;28;20056;-84
2023/11/08 06:50:49;;;;;;;3.85;2.17;;;;;;;;;;5013523;28;20064;-84
2023/11/08 06:53:18;;;;;;;5.78;2.60;;;;;;;;;;5031079;28;20125;-84
2023/11/08 06:55:46;;;;;;;3.90;1.73;;;;;;;;;;5015978;28;20378;-84
2023/11/08 06:58:13;;;;;;;2.60;2.08;;;;;;;;;;5013151;28;20055;-84
2023/11/08 07:00:44;;;;;;;3.28;1.63;;;;;;;;;;5006923;28;20046;-84
2023/11/08 07:03:13;;;;;;;3.17;1.70;;;;;;;;;;4996209;28;20049;-84
2023/11/08 07:05:43;;;;;;;2.28;1.80;;;;;;;;;;5015634;28;20050;-84
2023/11/08 07:08:10;;;;;;;3.90;1.98;;;;;;;;;;5000964;28;20419;-84
2023/11/08 07:10:40;;;;;;;3.53;1.98;;;;;;;;;;5014305;28;20104;-84
2023/11/08 07:13:09;;;;;;;4.78;2.20;;;;;;;;;;4998340;28;20056;-84
2023/11/08 07:15:41;;;;;;;7.20;3.13;;;;;;;;;;5013891;28;20057;-84
2023/11/08 07:18:14;;;;;;;6.93;1.85;;;;;;;;;;5018551;28;20066;-84
2023/11/08 07:20:41;;;;;;;2.78;1.65;;;;;;;;;;5016673;28;20045;-84
2023/11/08 07:23:09;;;;;;;2.40;1.70;;;;;;;;;;5010695;28;20413;-84
2023/11/08 07:25:36;;;;;;;2.97;1.80;;;;;;;;;;4993755;28;20700;-84
2023/11/08 07:28:07;;;;;;;2.42;1.50;;;;;;;;;;4994347;28;20519;-84
2023/11/08 07:30:36;;;;;;;3.00;1.77;;;;;;;;;;4996202;28;20129;-84
2023/11/08 07:33:03;;;;;;;3.85;2.10;;;;;;;;;;5014672;28;20062;-84
2023/11/08 07:35:34;;;;;;;2.25;1.38;;;;;;;;;;5004531;28;20069;-84
2023/11/08 07:38:02;;;;;;;4.82;1.80;;;;;;;;;;5010860;28;20057;-84
2023/11/08 07:40:30;;;;;;;7.22;2.25;;;;;;;;;;5010284;28;20121;-84
2023/11/08 07:43:02;;;;;;;5.30;2.63;;;;;;;;;;5014406;28;20049;-84
2023/11/08 07:45:29;;;;;;;3.75;1.50;;;;;;;;;;5015504;28;20057;-81
2023/11/08 07:48:03;;;;;;;5.68;1.70;;;;;;;;;;5015743;28;20066;-83
2023/11/08 07:50:30;;;;;;;3.97;2.40;;;;;;;;;;4997533;28;20057;-84
2023/11/08 07:53:04;;;;;;;7.78;2.38;;;;;;;;;;5028638;28;20504;-84
2023/11/08 07:55:33;;;;;;;2.00;1.20;;;;;;;;;;5007573;28;20796;-84
2023/11/08 07:58:01;;;;;;;3.42;1.95;;;;;;;;;;4996274;28;20061;-84
2023/11/08 08:00:31;;;;;;;5.60;1.83;;;;;;;;;;5001605;28;20602;-84
2023/11/08 08:03:01;;;;;;;2.22;1.58;;;;;;;;;;5034645;28;20052;-84
2023/11/08 08:05:28;;;;;;;2.63;1.33;;;;;;;;;;5021308;28;20050;-84
2023/11/08 08:07:55;;;;;;;3.13;1.85;;;;;;;;;;5015608;28;20057;-84
2023/11/08 08:10:25;;;;;;;2.55;1.35;;;;;;;;;;5013052;28;20061;-84
2023/11/08 08:12:52;;;;;;;2.22;1.30;;;;;;;;;;5025282;28;20517;-84
2023/11/08 08:15:25;;;;;;;2.65;1.60;;;;;;;;;;5010191;28;20046;-84
2023/11/08 08:17:54;;;;;;;1.88;1.70;;;;;;;;;;5013257;28;20054;-84
2023/11/08 08:20:27;;;;;;;3.95;1.75;;;;;;;;;;5013616;28;20056;-84
2023/11/08 08:22:56;;;;;;;2.72;1.45;;;;;;;;;;5011253;28;20061;-84
2023/11/08 08:25:28;;;;;;;2.55;1.20;;;;;;;;;;5013646;28;20132;-85
2023/11/08 08:27:58;;;;;;;2.25;2.05;;;;;;;;;;5013423;28;20149;-84
2023/11/08 08:30:28;;;;;;;3.17;1.13;;;;;;;;;;5011455;28;20543;-84
2023/11/08 08:32:58;;;;;;;3.92;1.38;;;;;;;;;;5009372;28;20416;-84
2023/11/08 08:35:28;;;;;;;2.88;1.48;;;;;;;;;;5011814;28;20045;-84
2023/11/08 08:37:58;;;;;;;3.05;1.20;;;;;;;;;;4997116;28;20188;-84
2023/11/08 08:40:32;;;;;;;2.63;1.45;;;;;;;;;;5011769;28;20042;-84
2023/11/08 08:43:04;;;;;;;1.77;1.38;;;;;;;;;;5011164;28;20050;-83
2023/11/08 08:45:32;;;;;;;3.20;1.30;;;;;;;;;;5017000;28;20045;-83
2023/11/08 08:48:00;;;;;;;1.80;1.10;;;;;;;;;;5035610;28;20038;-83
2023/11/08 08:50:28;;;;;;;1.67;1.10;;;;;;;;;;5036454;28;20032;-83
2023/11/08 08:52:57;;;;;;;1.58;1.38;;;;;;;;;;5030344;28;20048;-83
2023/11/08 08:55:29;;;;;;;2.60;1.23;;;;;;;;;;5011538;28;20396;-84
2023/11/08 08:57:58;;;;;;;3.35;1.20;;;;;;;;;;5004857;28;20046;-85
2023/11/08 09:00:28;;;;;;;5.38;1.38;;;;;;;;;;5008376;28;20057;-85
2023/11/08 09:02:58;;;;;;;3.58;1.50;;;;;;;;;;5009371;28;20054;-85
2023/11/08 09:05:29;;;;;;;4.60;1.27;;;;;;;;;;5008872;28;20046;-85
2023/11/08 09:07:57;;;;;;;5.60;1.30;;;;;;;;;;4991244;28;20050;-85
2023/11/08 09:10:27;;;;;;;2.50;1.13;;;;;;;;;;5011448;28;20056;-82
2023/11/08 09:12:54;;;;;;;4.00;1.73;;;;;;;;;;5004615;28;20056;-83
2023/11/08 09:15:23;;;;;;;3.42;1.85;;;;;;;;;;4989609;28;20046;-84
2023/11/08 09:17:50;;;;;;;2.75;1.15;;;;;;;;;;5007985;28;20050;-84
2023/11/08 09:20:22;;;;;;;1.67;0.68;;;;;;;;;;5007804;28;20065;-84
2023/11/08 09:22:49;;;;;;;1.52;1.08;;;;;;;;;;4990268;28;20065;-84
2023/11/08 09:25:19;;;;;;;4.95;1.10;;;;;;;;;;5009906;28;20057;-83
2023/11/08 09:27:48;;;;;;;2.17;0.98;;;;;;;;;;5007978;28;20531;-83
2023/11/08 09:30:18;;;;;;;2.70;1.45;;;;;;;;;;5007929;28;20060;-83
2023/11/08 09:32:48;;;;;;;2.17;1.20;;;;;;;;;;5023274;28;20050;-83
2023/11/08 09:35:15;;;;;;;4.43;1.25;;;;;;;;;;5009328;28;20054;-83
2023/11/08 09:37:46;;;;;;;1.48;1.20;;;;;;;;;;5007023;28;20046;-83
2023/11/08 09:40:16;;;;;;;1.75;1.15;;;;;;;;;;4992021;28;20053;-83
2023/11/08 09:42:46;;;;;;;3.00;1.55;;;;;;;;;;5010064;28;20038;-83
2023/11/08 09:45:17;;;;;;;2.67;1.80;;;;;;;;;;4993254;28;20050;-83
2023/11/08 09:47:51;;;;;;;2.10;1.27;;;;;;;;;;4967771;28;1068204;-84
2023/11/08 09:50:23;;;;;;;3.40;1.27;;;;;;;;;;5005444;28;20308;-84
2023/11/08 09:52:53;;;;;;;2.97;1.70;;;;;;;;;;5020687;28;20053;-83
2023/11/08 09:55:26;;;;;;;5.30;1.73;;;;;;;;;;5007181;28;20062;-83
2023/11/08 09:57:58;;;;;;;2.70;1.77;;;;;;;;;;5009154;28;20396;-84
2023/11/08 10:00:26;;;;;;;6.97;1.42;;;;;;;;;;5006434;28;20050;-84
2023/11/08 10:02:57;;;;;;;3.60;1.23;;;;;;;;;;5005014;28;20049;-84
2023/11/08 10:05:24;;;;;;;3.13;1.50;;;;;;;;;;5008023;28;20061;-83
2023/11/08 10:07:54;;;;;;;3.15;1.48;;;;;;;;;;4993654;28;20563;-84
2023/11/08 10:10:26;;;;;;;1.65;1.10;;;;;;;;;;5008407;28;20054;-83
2023/11/08 10:13:05;;;;;;;3.60;1.08;;;;;;;;;;4990899;28;20061;-83
2023/11/08 10:15:36;;;;;;;1.42;0.90;;;;;;;;;;5010150;28;20045;-83
2023/11/08 10:18:08;;;;;;;5.10;1.83;;;;;;;;;;4995899;28;20057;-83
2023/11/08 10:20:38;;;;;;;5.78;2.15;;;;;;;;;;5010538;28;20042;-83
2023/11/08 10:23:25;;;;;;;1.90;1.40;;;;;;;;;;5008361;28;20076;-83
2023/11/08 10:26:13;;;;;;;2.83;1.52;;;;;;;;;;4990604;28;20054;-83
2023/11/08 10:28:54;;;;;;;2.50;1.55;;;;;;;;;;4996042;28;20056;-83
2023/11/08 10:31:29;;;;;;;2.33;1.55;;;;;;;;;;5011376;28;20700;-83
2023/11/08 10:34:01;;;;;;;1.85;1.00;;;;;;;;;;4992379;28;20052;-83
2023/11/08 10:36:33;;;;;;;4.18;1.67;;;;;;;;;;5013324;28;20049;-83
2023/11/08 10:39:05;;;;;;;3.78;1.88;;;;;;;;;;4997573;28;20045;-84
2023/11/08 10:41:33;;;;;;;7.50;3.55;;;;;;;;;;5012417;28;20428;-84
2023/11/08 10:44:10;;;;;;;3.83;1.27;;;;;;;;;;4995544;28;20049;-84
2023/11/08 10:46:41;;;;;;;2.45;1.75;;;;;;;;;;5009195;28;20038;-83
2023/11/08 10:49:12;;;;;;;1.48;1.10;;;;;;;;;;5013676;28;20057;-84
2023/11/08 10:51:42;;;;;;;9.27;1.77;;;;;;;;;;5013909;28;20053;-84
2023/11/08 10:54:10;;;;;;;3.97;1.10;;;;;;;;;;5010007;28;20105;-84
2023/11/08 10:56:38;;;;;;;4.63;1.92;;;;;;;;;;5013003;28;20041;-83
2023/11/08 10:59:15;;;;;;;2.13;0.90;;;;;;;;;;5011781;28;20420;-84
2023/11/08 11:01:45;;;;;;;2.97;1.73;;;;;;;;;;5012602;28;20049;-84
2023/11/08 11:04:19;;;;;;;3.55;1.48;;;;;;;;;;5009835;28;20643;-84
2023/11/08 11:06:54;;;;;;;1.63;1.25;;;;;;;;;;5013897;28;20049;-84
2023/11/08 11:09:39;;;;;;;1.70;1.08;;;;;;;;;;5012576;28;20046;-84
2023/11/08 11:12:11;;;;;;;2.30;1.08;;;;;;;;;;5011299;28;20404;-84
2023/11/08 11:14:45;;;;;;;3.03;1.23;;;;;;;;;;5011610;28;20054;-84
2023/11/08 11:17:20;;;;;;;2.25;1.40;;;;;;;;;;5010834;28;20046;-84
2023/11/08 11:19:50;;;;;;;3.55;1.15;;;;;;;;;;4993763;28;20058;-84
2023/11/08 11:22:20;;;;;;;1.33;1.15;;;;;;;;;;5011154;28;20049;-84
2023/11/08 11:24:48;;;;;;;2.05;1.23;;;;;;;;;;4993811;28;20425;-83
2023/11/08 11:27:43;;;;;;;1.63;0.95;;;;;;;;;;5014284;28;20060;-84
2023/11/08 11:30:26;;;;;;;2.20;1.77;;;;;;;;;;5003986;28;20050;-84
2023/11/08 11:32:54;;;;;;;2.28;1.45;;;;;;;;;;5006815;28;20952;-84
2023/11/08 11:35:57;;;;;;;2.40;0.95;;;;;;;;;;5011392;28;20420;-83
2023/11/08 11:38:27;;;;;;;1.83;1.40;;;;;;;;;;4996441;28;20056;-84
2023/11/08 11:41:22;;;;;;;0.95;0.85;;;;;;;;;;5012891;28;20052;-83
2023/11/08 11:43:53;;;;;;;6.82;1.80;;;;;;;;;;5017235;28;20061;-84
2023/11/08 11:46:27;;;;;;;;;;;;;;;;;;5010887;28;20050;-84
2023/11/08 11:49:10;;;;;;;2.05;1.17;;;;;;;;;;5014491;28;19933;-84
2023/11/08 11:51:44;;;;;;;1.13;0.70;;;;;;;;;;5011389;28;20049;-84
2023/11/08 11:54:13;;;;;;;0.70;0.70;;;;;;;;;;5009132;28;20050;-84
2023/11/08 11:56:43;;;;;;;7.95;1.33;;;;;;;;;;5012031;28;20046;-83
2023/11/08 11:59:18;;;;;;;1.70;1.40;;;;;;;;;;5013308;28;20050;-84
2023/11/08 12:01:48;;;;;;;0.73;0.73;;;;;;;;;;5009506;28;20408;-84
2023/11/08 12:04:21;;;;;;;0.93;0.70;;;;;;;;;;5011052;28;20045;-84
2023/11/08 12:06:56;;;;;;;1.13;0.95;;;;;;;;;;4996821;28;20423;-84
2023/11/08 12:09:25;;;;;;;1.52;0.85;;;;;;;;;;5009696;28;20053;-84
2023/11/08 12:11:56;;;;;;;2.33;1.25;;;;;;;;;;5011859;28;20050;-84
2023/11/08 12:14:23;;;;;;;1.85;0.85;;;;;;;;;;4997451;28;20080;-83
2023/11/08 12:16:50;;;;;;;1.50;0.80;;;;;;;;;;4996918;28;20057;-83
2023/11/08 12:19:22;;;;;;;1.20;1.00;;;;;;;;;;5013282;28;20054;-83
2023/11/08 12:21:52;;;;;;;1.98;1.27;;;;;;;;;;5013905;28;20054;-83
2023/11/08 12:24:21;;;;;;;0.80;0.80;;;;;;;;;;4996929;28;20053;-83
2023/11/08 12:26:48;;;;;;;0.90;0.82;;;;;;;;;;4995329;28;20061;-83
2023/11/08 12:29:17;;;;;;;2.08;1.25;;;;;;;;;;5012121;28;20050;-83
2023/11/08 12:31:45;;;;;;;1.73;1.02;;;;;;;;;;4995708;28;20547;-83
2023/11/08 12:34:13;;;;;;;1.88;0.95;;;;;;;;;;5011380;28;20563;-83
2023/11/08 12:36:41;;;;;;;3.67;1.50;;;;;;;;;;4996410;28;20053;-83
2023/11/08 12:39:13;;;;;;;1.98;1.05;;;;;;;;;;5014824;28;20057;-83
2023/11/08 12:41:45;;;;;;;1.13;1.02;;;;;;;;;;5012032;28;20484;-83
2023/11/08 12:44:16;;;;;;;2.30;1.02;;;;;;;;;;4996196;28;20046;-83
2023/11/08 12:46:49;;;;;;;3.45;0.80;;;;;;;;;;4995979;28;20054;-83
2023/11/08 12:49:34;;;;;;;0.98;0.63;;;;;;;;;;5009848;28;20411;-83
2023/11/08 12:52:04;;;;;;;3.05;1.05;;;;;;;;;;5008651;28;20054;-83
2023/11/08 12:54:36;;;;;;;2.65;0.77;;;;;;;;;;5012242;28;20042;-83
2023/11/08 12:57:07;;;;;;;3.88;0.80;;;;;;;;;;5013125;28;20050;-84
2023/11/08 12:59:42;;;;;;;2.15;0.70;;;;;;;;;;5014718;28;20050;-84
2023/11/08 13:02:11;;;;;;;;;;;;;;;;;;5012066;28;20072;-83
2023/11/08 13:04:41;;;;;;;1.08;0.82;;;;;;;;;;5010789;28;19921;-83
2023/11/08 13:07:08;;;;;;;1.17;0.70;;;;;;;;;;5012878;28;20058;-84
2023/11/08 13:09:35;;;;;;;1.00;0.75;;;;;;;;;;4995511;28;20554;-83
2023/11/08 13:12:10;;;;;;;1.45;1.00;;;;;;;;;;5012520;28;20050;-84
2023/11/08 13:14:38;;;;;;;1.63;1.02;;;;;;;;;;5012354;28;20050;-84
2023/11/08 13:17:11;;;;;;;1.15;0.70;;;;;;;;;;5012552;28;20054;-84
2023/11/08 13:19:43;;;;;;;1.20;0.95;;;;;;;;;;4979599;28;20054;-84
2023/11/08 13:22:18;;;;;;;3.70;0.80;;;;;;;;;;4997534;28;20050;-84
2023/11/08 13:24:48;;;;;;;0.90;0.73;;;;;;;;;;5012646;28;20062;-85
2023/11/08 13:27:19;;;;;;;1.30;0.80;;;;;;;;;;5012650;28;20061;-84
2023/11/08 13:29:47;;;;;;;4.63;0.90;;;;;;;;;;4995212;28;20050;-85
2023/11/08 13:32:14;;;;;;;1.85;0.90;;;;;;;;;;5009740;28;20054;-84
2023/11/08 13:34:44;;;;;;;0.75;0.60;;;;;;;;;;4996049;28;20041;-84
2023/11/08 13:37:11;;;;;;;0.85;0.50;;;;;;;;;;5007218;28;20045;-84
2023/11/08 13:39:44;;;;;;;1.13;0.57;;;;;;;;;;5011996;28;20045;-84
2023/11/08 13:42:12;;;;;;;1.02;0.60;;;;;;;;;;5006932;28;20050;-84
2023/11/08 13:44:40;;;;;;;2.53;0.70;;;;;;;;;;5011833;28;20400;-84
2023/11/08 13:47:07;;;;;;;0.95;0.55;;;;;;;;;;5054022;22;20128;-80
2023/11/08 13:49:38;;;;;;;1.10;0.60;;;;;;;;;;5034444;28;20063;-80
2023/11/08 13:52:07;;;;;;;0.80;0.60;;;;;;;;;;5051934;28;20060;-80
2023/11/08 13:54:40;;;;;;;1.27;0.90;;;;;;;;;;5058863;28;20056;-80
2023/11/08 13:57:16;;;;;;;2.10;1.33;;;;;;;;;;5053616;28;20049;-81
2023/11/08 13:59:44;;;;;;;0.90;0.80;;;;;;;;;;5058625;28;20052;-81
2023/11/08 14:02:14;;;;;;;1.33;1.23;;;;;;;;;;5040381;28;20053;-81
2023/11/08 14:04:46;;;;;;;1.57;0.90;;;;;;;;;;5031788;28;20095;-81
2023/11/08 14:07:21;;;;;;;1.80;0.80;;;;;;;;;;5034860;28;20045;-81
2023/11/08 14:09:48;;;;;;;1.42;0.85;;;;;;;;;;5054824;28;20068;-81
2023/11/08 14:12:23;;;;;;;1.25;0.70;;;;;;;;;;5054614;28;20052;-81
2023/11/08 14:14:52;;;;;;;3.53;1.52;;;;;;;;;;5040343;28;20045;-81
2023/11/08 14:17:21;;;;;;;1.08;0.70;;;;;;;;;;5057177;28;20056;-81
2023/11/08 14:19:49;;;;;;;1.52;0.98;;;;;;;;;;5054583;28;20063;-81
2023/11/08 14:22:21;;;;;;;1.33;0.70;;;;;;;;;;5040830;28;20060;-81
2023/11/08 14:24:53;;;;;;;1.98;0.80;;;;;;;;;;5047983;28;20053;-81
2023/11/08 14:27:20;;;;;;;3.50;0.80;;;;;;;;;;5037918;28;20064;-81
2023/11/08 14:29:50;;;;;;;0.60;0.50;;;;;;;;;;5055651;28;20059;-81
2023/11/08 14:32:19;;;;;;;1.40;0.65;;;;;;;;;;5036761;28;20053;-82
2023/11/08 14:34:49;;;;;;;1.05;0.95;;;;;;;;;;5029403;28;20072;-82
2023/11/08 14:37:19;;;;;;;2.60;0.90;;;;;;;;;;5050821;28;20045;-82
2023/11/08 14:39:52;;;;;;;1.83;0.70;;;;;;;;;;5056287;28;20360;-82
2023/11/08 14:42:27;;;;;;;1.38;0.80;;;;;;;;;;5054323;28;20351;-81
2023/11/08 14:44:57;;;;;;;0.68;0.55;;;;;;;;;;5023694;28;20048;-81
2023/11/08 14:47:29;;;;;;;2.38;0.95;;;;;;;;;;5048965;28;20818;-81
2023/11/08 14:50:00;;;;;;;3.28;1.20;;;;;;;;;;5053002;28;20049;-81
2023/11/08 14:52:27;;;;;;;1.83;1.10;;;;;;;;;;5067179;28;20064;-81
2023/11/08 14:54:57;;;;;;;5.25;1.35;;;;;;;;;;5038175;28;20056;-81
2023/11/08 14:57:25;;;;;;;3.10;0.90;;;;;;;;;;5035662;28;20061;-81
2023/11/08 14:59:58;;;;;;;2.00;1.60;;;;;;;;;;5036242;28;20049;-81
2023/11/08 15:02:31;;;;;;;2.88;1.23;;;;;;;;;;5053726;28;20057;-81